Time;durP1;ratioP1;P1;durP2;ratioP2;P2;SDS_P1;SDS_P2;PMS_P1;PMS_P2;Temp;Humidity;BMP_temperature;BMP_pressure;BME280_temperature;BME280_humidity;BME280_pressure;Samples;Min_cycle;Max_cycle;Signal;HPM_P1;HPM_P2
2023/01/06 00:00:37;;;;;;;0.10;0.10;;;;;;;;;;5038306;28;20040;-73
2023/01/06 00:03:03;;;;;;;0.10;0.10;;;;;;;;;;5020557;28;20131;-73
2023/01/06 00:05:29;;;;;;;0.10;0.10;;;;;;;;;;5001702;28;20056;-73
2023/01/06 00:07:56;;;;;;;0.10;0.10;;;;;;;;;;5027745;28;20393;-75
2023/01/06 00:10:22;;;;;;;0.13;0.13;;;;;;;;;;5019820;28;20044;-72
2023/01/06 00:12:48;;;;;;;0.10;0.10;;;;;;;;;;5026373;28;20682;-71
2023/01/06 00:15:16;;;;;;;0.10;0.10;;;;;;;;;;5020899;28;20044;-72
2023/01/06 00:17:42;;;;;;;0.10;0.10;;;;;;;;;;5026423;28;20537;-72
2023/01/06 00:20:09;;;;;;;0.05;0.05;;;;;;;;;;4991519;28;20549;-72
2023/01/06 00:22:35;;;;;;;0.10;0.10;;;;;;;;;;5019521;28;20044;-71
2023/01/06 00:25:01;;;;;;;0.10;0.10;;;;;;;;;;5027273;28;20897;-73
2023/01/06 00:27:27;;;;;;;0.10;0.10;;;;;;;;;;5015455;28;20396;-72
2023/01/06 00:29:53;;;;;;;0.10;0.10;;;;;;;;;;5012663;28;20052;-72
2023/01/06 00:32:19;;;;;;;0.10;0.10;;;;;;;;;;5011058;28;20052;-73
2023/01/06 00:34:45;;;;;;;0.10;0.10;;;;;;;;;;5012133;28;20044;-72
2023/01/06 00:37:11;;;;;;;0.10;0.10;;;;;;;;;;5015053;28;20101;-73
2023/01/06 00:39:37;;;;;;;0.10;0.10;;;;;;;;;;5010643;28;20105;-72
2023/01/06 00:42:04;;;;;;;0.10;0.10;;;;;;;;;;5030547;28;20041;-72
2023/01/06 00:44:37;;;;;;;0.10;0.10;;;;;;;;;;5008818;28;20209;-74
2023/01/06 00:47:04;;;;;;;0.10;0.10;;;;;;;;;;5010719;28;20088;-73
2023/01/06 00:49:31;;;;;;;0.10;0.10;;;;;;;;;;5010269;28;20049;-73
2023/01/06 00:51:57;;;;;;;0.10;0.10;;;;;;;;;;5008835;28;20074;-73
2023/01/06 00:54:23;;;;;;;0.10;0.10;;;;;;;;;;5028390;28;20044;-73
2023/01/06 00:56:50;;;;;;;0.10;0.10;;;;;;;;;;5018085;28;20048;-72
2023/01/06 00:59:17;;;;;;;0.10;0.10;;;;;;;;;;5014123;28;20278;-72
2023/01/06 01:01:43;;;;;;;0.10;0.10;;;;;;;;;;5003165;28;20135;-72
2023/01/06 01:04:10;;;;;;;0.10;0.10;;;;;;;;;;4993672;28;20056;-73
2023/01/06 01:06:36;;;;;;;0.10;0.10;;;;;;;;;;5007297;28;20132;-72
2023/01/06 01:09:03;;;;;;;0.10;0.10;;;;;;;;;;5026800;28;20193;-72
2023/01/06 01:14:15;;;;;;;0.10;0.10;;;;;;;;;;5024385;28;20280;-72
2023/01/06 01:16:41;;;;;;;0.10;0.10;;;;;;;;;;5008149;28;20102;-72
2023/01/06 01:19:07;;;;;;;0.10;0.10;;;;;;;;;;5014183;28;20487;-72
2023/01/06 01:21:33;;;;;;;0.10;0.10;;;;;;;;;;5023557;28;20048;-72
2023/01/06 01:23:59;;;;;;;0.10;0.10;;;;;;;;;;5005390;28;20057;-72
2023/01/06 01:26:25;;;;;;;0.10;0.10;;;;;;;;;;5003378;28;20361;-72
2023/01/06 01:28:51;;;;;;;0.10;0.10;;;;;;;;;;4999523;28;20517;-72
2023/01/06 01:31:19;;;;;;;0.10;0.10;;;;;;;;;;5023647;28;20995;-72
2023/01/06 01:33:45;;;;;;;0.10;0.10;;;;;;;;;;5029047;28;20063;-72
2023/01/06 01:36:12;;;;;;;0.10;0.10;;;;;;;;;;5026926;28;20036;-72
2023/01/06 01:38:38;;;;;;;0.10;0.10;;;;;;;;;;5024491;28;20072;-73
2023/01/06 01:41:05;;;;;;;0.10;0.10;;;;;;;;;;5028201;28;20175;-73
2023/01/06 01:43:47;;;;;;;0.10;0.10;;;;;;;;;;5008350;28;20088;-72
2023/01/06 01:46:17;;;;;;;0.10;0.10;;;;;;;;;;5028172;28;20148;-73
2023/01/06 01:48:43;;;;;;;0.10;0.10;;;;;;;;;;5018247;28;20459;-72
2023/01/06 01:51:12;;;;;;;0.10;0.10;;;;;;;;;;5009511;28;20193;-72
2023/01/06 01:53:40;;;;;;;0.10;0.10;;;;;;;;;;5024604;28;20078;-72
2023/01/06 01:56:07;;;;;;;0.10;0.10;;;;;;;;;;5028578;28;20044;-72
2023/01/06 01:58:39;;;;;;;0.10;0.10;;;;;;;;;;4998115;28;20548;-72
2023/01/06 02:01:08;;;;;;;0.10;0.10;;;;;;;;;;5021625;28;20063;-74
2023/01/06 02:03:34;;;;;;;0.10;0.10;;;;;;;;;;5017442;28;20060;-73
2023/01/06 02:06:02;;;;;;;0.10;0.10;;;;;;;;;;5013219;28;20048;-73
2023/01/06 02:08:31;;;;;;;0.10;0.10;;;;;;;;;;5017766;28;20139;-72
2023/01/06 02:10:57;;;;;;;0.10;0.10;;;;;;;;;;5031773;28;20134;-73
2023/01/06 02:13:24;;;;;;;0.10;0.10;;;;;;;;;;5016108;28;20080;-72
2023/01/06 02:15:52;;;;;;;0.10;0.10;;;;;;;;;;5029964;28;20523;-72
2023/01/06 02:18:18;;;;;;;0.10;0.10;;;;;;;;;;5029374;28;20056;-72
2023/01/06 02:21:11;;;;;;;0.10;0.10;;;;;;;;;;5030730;28;20072;-72
2023/01/06 02:23:56;;;;;;;0.10;0.10;;;;;;;;;;5010030;28;20083;-73
2023/01/06 02:26:43;;;;;;;0.10;0.10;;;;;;;;;;5027320;28;20041;-72
2023/01/06 02:29:28;;;;;;;0.10;0.10;;;;;;;;;;5017062;28;20147;-74
2023/01/06 02:31:57;;;;;;;0.10;0.10;;;;;;;;;;5006665;28;20943;-73
2023/01/06 02:34:47;;;;;;;0.10;0.10;;;;;;;;;;5013168;28;20056;-71
2023/01/06 02:37:18;;;;;;;0.10;0.10;;;;;;;;;;5000091;28;20067;-72
2023/01/06 02:40:05;;;;;;;0.10;0.10;;;;;;;;;;5023882;28;20041;-72
2023/01/06 02:43:00;;;;;;;0.10;0.10;;;;;;;;;;5008191;28;20187;-72
2023/01/06 02:45:36;;;;;;;0.10;0.10;;;;;;;;;;5005457;28;20061;-72
2023/01/06 02:48:02;;;;;;;0.08;0.08;;;;;;;;;;5013618;28;20480;-74
2023/01/06 02:50:40;;;;;;;0.10;0.10;;;;;;;;;;5006628;28;20051;-73
2023/01/06 02:53:12;;;;;;;0.10;0.10;;;;;;;;;;5008843;28;20943;-73
2023/01/06 02:55:59;;;;;;;0.10;0.10;;;;;;;;;;5008417;28;20048;-72
2023/01/06 02:58:40;;;;;;;0.10;0.10;;;;;;;;;;5006480;28;20044;-72
2023/01/06 03:01:16;;;;;;;0.10;0.10;;;;;;;;;;5030560;28;20068;-73
2023/01/06 03:03:47;;;;;;;0.10;0.10;;;;;;;;;;5029996;28;20052;-72
2023/01/06 03:06:16;;;;;;;0.10;0.10;;;;;;;;;;5029275;28;20055;-72
2023/01/06 03:08:45;;;;;;;0.10;0.10;;;;;;;;;;5042221;28;20080;-72
2023/01/06 03:11:12;;;;;;;0.10;0.10;;;;;;;;;;5013946;28;20048;-72
2023/01/06 03:13:46;;;;;;;0.10;0.10;;;;;;;;;;5010178;28;20499;-72
2023/01/06 03:16:13;;;;;;;0.10;0.10;;;;;;;;;;5012358;28;20847;-72
2023/01/06 03:18:40;;;;;;;0.10;0.10;;;;;;;;;;5010285;28;20048;-72
2023/01/06 03:21:09;;;;;;;0.10;0.10;;;;;;;;;;5011610;28;20056;-72
2023/01/06 03:23:37;;;;;;;0.17;0.17;;;;;;;;;;5024586;28;20052;-72
2023/01/06 03:26:03;;;;;;;0.10;0.10;;;;;;;;;;5020999;28;20926;-71
2023/01/06 03:28:29;;;;;;;0.10;0.10;;;;;;;;;;5023060;28;20048;-72
2023/01/06 03:31:15;;;;;;;0.10;0.10;;;;;;;;;;5030216;28;20049;-72
2023/01/06 03:33:45;;;;;;;0.10;0.10;;;;;;;;;;5012635;28;20056;-72
2023/01/06 03:36:14;;;;;;;0.10;0.10;;;;;;;;;;4996035;28;20523;-73
2023/01/06 03:38:55;;;;;;;0.10;0.10;;;;;;;;;;5012069;28;20413;-72
2023/01/06 03:41:21;;;;;;;0.10;0.10;;;;;;;;;;5028574;28;20149;-73
2023/01/06 03:44:14;;;;;;;0.10;0.10;;;;;;;;;;5028752;28;20157;-72
2023/01/06 03:46:43;;;;;;;0.10;0.10;;;;;;;;;;5028664;28;20067;-72
2023/01/06 03:49:12;;;;;;;0.10;0.10;;;;;;;;;;5010652;28;20054;-72
2023/01/06 03:51:47;;;;;;;0.10;0.10;;;;;;;;;;5032871;28;20921;-72
2023/01/06 03:54:19;;;;;;;0.10;0.10;;;;;;;;;;5026629;28;20079;-72
2023/01/06 03:56:49;;;;;;;0.10;0.10;;;;;;;;;;5002640;28;20053;-73
2023/01/06 03:59:20;;;;;;;0.10;0.10;;;;;;;;;;4993007;28;20535;-72
2023/01/06 04:01:46;;;;;;;;;;;;;;;;;;5039086;28;20431;-71
2023/01/06 04:04:12;;;;;;;0.10;0.10;;;;;;;;;;5012694;28;20265;-72
2023/01/06 04:06:38;;;;;;;0.10;0.10;;;;;;;;;;5028028;28;20040;-74
2023/01/06 04:09:04;;;;;;;0.10;0.10;;;;;;;;;;5028192;28;20621;-74
2023/01/06 04:14:15;;;;;;;0.10;0.10;;;;;;;;;;5006997;28;20374;-72
2023/01/06 04:16:41;;;;;;;0.10;0.10;;;;;;;;;;5028745;28;20205;-72
2023/01/06 04:19:07;;;;;;;0.10;0.10;;;;;;;;;;5028932;28;20071;-74
2023/01/06 04:21:33;;;;;;;0.10;0.10;;;;;;;;;;5028753;28;20118;-72
2023/01/06 04:23:59;;;;;;;0.10;0.10;;;;;;;;;;5024927;28;20056;-72
2023/01/06 04:26:25;;;;;;;0.10;0.10;;;;;;;;;;5023876;28;20039;-72
2023/01/06 04:28:51;;;;;;;0.10;0.10;;;;;;;;;;5031822;28;20055;-71
2023/01/06 04:31:17;;;;;;;0.10;0.10;;;;;;;;;;5008376;28;20049;-72
2023/01/06 04:33:44;;;;;;;0.20;0.20;;;;;;;;;;5003526;28;20155;-72
2023/01/06 04:36:10;;;;;;;0.10;0.10;;;;;;;;;;5016944;28;20045;-72
2023/01/06 04:38:36;;;;;;;0.10;0.10;;;;;;;;;;5009891;28;20049;-72
2023/01/06 04:41:02;;;;;;;0.10;0.10;;;;;;;;;;5008191;28;20056;-72
2023/01/06 04:43:28;;;;;;;0.10;0.10;;;;;;;;;;5018822;28;20067;-72
2023/01/06 04:45:56;;;;;;;0.10;0.10;;;;;;;;;;4994890;28;20107;-72
2023/01/06 04:48:22;;;;;;;0.10;0.10;;;;;;;;;;5010749;28;20052;-72
2023/01/06 04:50:48;;;;;;;0.10;0.10;;;;;;;;;;5027846;28;20040;-72
2023/01/06 04:53:14;;;;;;;0.10;0.10;;;;;;;;;;5030439;28;20084;-72
2023/01/06 04:55:41;;;;;;;0.10;0.10;;;;;;;;;;5025082;28;20127;-72
2023/01/06 04:58:07;;;;;;;0.10;0.10;;;;;;;;;;5011230;28;20424;-72
2023/01/06 05:00:33;;;;;;;0.10;0.10;;;;;;;;;;5001545;28;20036;-73
2023/01/06 05:02:59;;;;;;;0.05;0.05;;;;;;;;;;5025096;28;20044;-72
2023/01/06 05:05:25;;;;;;;0.10;0.10;;;;;;;;;;5007979;28;20055;-73
2023/01/06 05:07:54;;;;;;;0.10;0.10;;;;;;;;;;5010831;28;20135;-74
2023/01/06 05:10:21;;;;;;;0.10;0.10;;;;;;;;;;5000471;28;20057;-72
2023/01/06 05:12:47;;;;;;;0.10;0.10;;;;;;;;;;5006884;28;20240;-72
2023/01/06 05:15:13;;;;;;;0.03;0.03;;;;;;;;;;5010650;28;20044;-72
2023/01/06 05:17:39;;;;;;;0.10;0.10;;;;;;;;;;5029191;28;20040;-72
2023/01/06 05:20:06;;;;;;;0.10;0.10;;;;;;;;;;5010414;28;20052;-72
2023/01/06 05:22:32;;;;;;;0.10;0.10;;;;;;;;;;5029087;28;20044;-74
2023/01/06 05:24:58;;;;;;;0.10;0.10;;;;;;;;;;5027343;28;20044;-72
2023/01/06 05:27:24;;;;;;;0.10;0.10;;;;;;;;;;5025847;28;20041;-73
2023/01/06 05:29:50;;;;;;;0.10;0.10;;;;;;;;;;5006698;28;20041;-72
2023/01/06 05:32:16;;;;;;;0.10;0.10;;;;;;;;;;4999231;28;20248;-72
2023/01/06 05:34:42;;;;;;;0.10;0.10;;;;;;;;;;5027876;28;20439;-71
2023/01/06 05:37:08;;;;;;;0.00;0.00;;;;;;;;;;5032702;28;20051;-72
2023/01/06 05:39:34;;;;;;;0.10;0.10;;;;;;;;;;5015883;28;20052;-73
2023/01/06 05:42:00;;;;;;;0.10;0.10;;;;;;;;;;5031502;28;20191;-72
2023/01/06 05:44:26;;;;;;;0.10;0.10;;;;;;;;;;5031984;28;20098;-72
2023/01/06 05:46:52;;;;;;;0.10;0.10;;;;;;;;;;5020633;28;20076;-72
2023/01/06 05:49:18;;;;;;;0.20;0.20;;;;;;;;;;5029540;28;20059;-72
2023/01/06 05:51:44;;;;;;;0.10;0.10;;;;;;;;;;5014473;28;20135;-72
2023/01/06 05:54:10;;;;;;;0.10;0.10;;;;;;;;;;5011914;28;20056;-72
2023/01/06 05:56:36;;;;;;;0.10;0.10;;;;;;;;;;5009759;28;20053;-70
2023/01/06 05:59:02;;;;;;;0.10;0.10;;;;;;;;;;5032837;28;20045;-72
2023/01/06 06:01:30;;;;;;;0.10;0.10;;;;;;;;;;5002830;28;20049;-72
2023/01/06 06:03:59;;;;;;;0.10;0.10;;;;;;;;;;5031866;28;20061;-72
2023/01/06 06:06:26;;;;;;;0.10;0.10;;;;;;;;;;5015776;28;20139;-73
2023/01/06 06:08:52;;;;;;;0.10;0.10;;;;;;;;;;5033525;28;20059;-73
2023/01/06 06:11:19;;;;;;;0.10;0.10;;;;;;;;;;5031646;28;20072;-73
2023/01/06 06:13:49;;;;;;;0.10;0.10;;;;;;;;;;5005988;28;20055;-72
2023/01/06 06:16:16;;;;;;;0.10;0.10;;;;;;;;;;5007191;28;20093;-72
2023/01/06 06:18:48;;;;;;;0.10;0.10;;;;;;;;;;5013309;28;20972;-72
2023/01/06 06:21:15;;;;;;;0.10;0.10;;;;;;;;;;5028040;28;20052;-72
2023/01/06 06:23:41;;;;;;;0.10;0.10;;;;;;;;;;5014144;28;20063;-72
2023/01/06 06:26:08;;;;;;;0.10;0.10;;;;;;;;;;5014332;28;20057;-71
2023/01/06 06:28:34;;;;;;;0.10;0.10;;;;;;;;;;5029434;28;20556;-72
2023/01/06 06:31:07;;;;;;;0.00;0.00;;;;;;;;;;5006120;28;20385;-72
2023/01/06 06:33:34;;;;;;;0.05;0.05;;;;;;;;;;5011444;28;20753;-72
2023/01/06 06:36:00;;;;;;;0.10;0.10;;;;;;;;;;5025061;28;20499;-74
2023/01/06 06:38:27;;;;;;;0.10;0.10;;;;;;;;;;5029915;28;20132;-74
2023/01/06 06:40:53;;;;;;;0.10;0.10;;;;;;;;;;5013994;28;20350;-72
2023/01/06 06:43:19;;;;;;;0.10;0.10;;;;;;;;;;5006704;28;20036;-73
2023/01/06 06:45:46;;;;;;;0.10;0.10;;;;;;;;;;5020984;28;20110;-73
2023/01/06 06:48:12;;;;;;;0.10;0.10;;;;;;;;;;5031093;28;20118;-73
2023/01/06 06:50:38;;;;;;;0.20;0.20;;;;;;;;;;5029637;28;20147;-73
2023/01/06 06:53:04;;;;;;;0.10;0.10;;;;;;;;;;5012474;28;20400;-71
2023/01/06 06:55:30;;;;;;;0.10;0.10;;;;;;;;;;5031629;28;20055;-72
2023/01/06 06:57:56;;;;;;;0.10;0.10;;;;;;;;;;5026402;28;20048;-72
2023/01/06 07:00:22;;;;;;;0.10;0.10;;;;;;;;;;4996236;28;20052;-72
2023/01/06 07:02:49;;;;;;;0.10;0.10;;;;;;;;;;5026238;28;20134;-71
2023/01/06 07:05:15;;;;;;;0.10;0.10;;;;;;;;;;4999162;28;20128;-71
2023/01/06 07:07:42;;;;;;;0.10;0.10;;;;;;;;;;5028803;28;20139;-72
2023/01/06 07:10:08;;;;;;;0.10;0.10;;;;;;;;;;5024014;28;20055;-72
2023/01/06 07:12:34;;;;;;;0.10;0.10;;;;;;;;;;5029723;28;20503;-74
2023/01/06 07:15:00;;;;;;;0.10;0.10;;;;;;;;;;5012989;28;20534;-72
2023/01/06 07:17:29;;;;;;;0.10;0.10;;;;;;;;;;5008872;28;20381;-71
2023/01/06 07:19:55;;;;;;;0.10;0.10;;;;;;;;;;5021878;28;20059;-72
2023/01/06 07:22:21;;;;;;;0.10;0.10;;;;;;;;;;5008060;28;20075;-72
2023/01/06 07:24:47;;;;;;;0.10;0.10;;;;;;;;;;5028089;28;20048;-71
2023/01/06 07:27:13;;;;;;;0.10;0.10;;;;;;;;;;5021457;28;20822;-71
2023/01/06 07:29:39;;;;;;;0.00;0.00;;;;;;;;;;5032493;28;20080;-71
2023/01/06 07:32:05;;;;;;;0.10;0.10;;;;;;;;;;5025914;28;20052;-71
2023/01/06 07:34:31;;;;;;;0.10;0.10;;;;;;;;;;5012475;28;20044;-72
2023/01/06 07:36:57;;;;;;;0.10;0.10;;;;;;;;;;5032346;28;20239;-71
2023/01/06 07:39:23;;;;;;;0.10;0.10;;;;;;;;;;5011816;28;20060;-71
2023/01/06 07:41:49;;;;;;;0.10;0.10;;;;;;;;;;5034922;28;20074;-71
2023/01/06 07:44:15;;;;;;;0.10;0.10;;;;;;;;;;5042810;28;20106;-71
2023/01/06 07:46:41;;;;;;;0.10;0.10;;;;;;;;;;5029742;28;20483;-71
2023/01/06 07:49:07;;;;;;;0.10;0.10;;;;;;;;;;5027669;28;20044;-71
2023/01/06 07:51:33;;;;;;;0.15;0.15;;;;;;;;;;5039167;28;20950;-72
2023/01/06 07:54:00;;;;;;;0.10;0.10;;;;;;;;;;5029976;28;20885;-72
2023/01/06 07:56:26;;;;;;;0.10;0.10;;;;;;;;;;5020529;28;20890;-71
2023/01/06 07:58:53;;;;;;;0.10;0.10;;;;;;;;;;5013352;28;20821;-71
2023/01/06 08:01:19;;;;;;;0.10;0.10;;;;;;;;;;5029871;28;20064;-71
2023/01/06 08:03:45;;;;;;;0.10;0.10;;;;;;;;;;5024788;28;20053;-71
2023/01/06 08:06:12;;;;;;;0.10;0.10;;;;;;;;;;5047099;28;20067;-71
2023/01/06 08:08:38;;;;;;;0.10;0.10;;;;;;;;;;5005858;28;20063;-75
2023/01/06 08:11:06;;;;;;;0.10;0.10;;;;;;;;;;5024790;28;20041;-72
2023/01/06 08:13:32;;;;;;;0.10;0.10;;;;;;;;;;5028446;28;20511;-82
2023/01/06 08:15:59;;;;;;;0.10;0.10;;;;;;;;;;5031272;28;20174;-73
2023/01/06 08:18:25;;;;;;;0.10;0.10;;;;;;;;;;5005430;28;20181;-73
2023/01/06 08:20:51;;;;;;;0.10;0.10;;;;;;;;;;5000823;28;20059;-74
2023/01/06 08:23:17;;;;;;;0.10;0.10;;;;;;;;;;5031638;28;20051;-76
2023/01/06 08:25:43;;;;;;;0.17;0.17;;;;;;;;;;4985664;28;20047;-73
2023/01/06 08:28:09;;;;;;;0.10;0.10;;;;;;;;;;4960913;28;20717;-71
2023/01/06 08:30:38;;;;;;;0.10;0.10;;;;;;;;;;4961669;28;20168;-72
2023/01/06 08:33:05;;;;;;;0.10;0.10;;;;;;;;;;4961990;28;20061;-71
2023/01/06 08:35:31;;;;;;;0.10;0.10;;;;;;;;;;4979648;28;20252;-73
2023/01/06 08:37:57;;;;;;;0.10;0.10;;;;;;;;;;4961111;28;20656;-74
2023/01/06 08:40:23;;;;;;;0.10;0.10;;;;;;;;;;4980438;28;20048;-74
2023/01/06 08:42:49;;;;;;;0.10;0.10;;;;;;;;;;4962929;28;20048;-74
2023/01/06 08:45:15;;;;;;;0.10;0.10;;;;;;;;;;4961860;28;20674;-75
2023/01/06 08:47:41;;;;;;;0.10;0.10;;;;;;;;;;4961577;28;20060;-75
2023/01/06 08:50:07;;;;;;;0.10;0.10;;;;;;;;;;4978578;28;20940;-73
2023/01/06 08:52:33;;;;;;;0.10;0.10;;;;;;;;;;4960488;28;20044;-75
2023/01/06 08:54:59;;;;;;;0.10;0.10;;;;;;;;;;4999417;28;20052;-77
2023/01/06 08:57:25;;;;;;;0.10;0.10;;;;;;;;;;5016304;28;20481;-72
2023/01/06 08:59:51;;;;;;;0.10;0.10;;;;;;;;;;5029711;28;20574;-72
2023/01/06 09:02:18;;;;;;;0.10;0.10;;;;;;;;;;5034309;28;20130;-72
2023/01/06 09:04:44;;;;;;;0.10;0.10;;;;;;;;;;5006841;28;20472;-73
2023/01/06 09:07:10;;;;;;;0.10;0.10;;;;;;;;;;5000602;28;20063;-72
2023/01/06 09:09:36;;;;;;;0.10;0.10;;;;;;;;;;5005036;28;20041;-72
2023/01/06 09:12:02;;;;;;;0.10;0.10;;;;;;;;;;5001442;28;20302;-72
2023/01/06 09:14:29;;;;;;;0.10;0.10;;;;;;;;;;5010953;28;20109;-72
2023/01/06 09:16:55;;;;;;;0.10;0.10;;;;;;;;;;5010531;28;20045;-73
2023/01/06 09:19:21;;;;;;;0.10;0.10;;;;;;;;;;5032329;28;20048;-72
2023/01/06 09:21:47;;;;;;;0.10;0.10;;;;;;;;;;5020410;28;20059;-72
2023/01/06 09:24:14;;;;;;;0.10;0.10;;;;;;;;;;5031875;28;20054;-74
2023/01/06 09:26:40;;;;;;;0.10;0.10;;;;;;;;;;5017900;28;20716;-72
2023/01/06 09:29:06;;;;;;;0.13;0.13;;;;;;;;;;5040783;28;20036;-73
2023/01/06 09:31:32;;;;;;;0.10;0.10;;;;;;;;;;5036180;28;20048;-72
2023/01/06 09:33:58;;;;;;;0.10;0.10;;;;;;;;;;5026937;28;20058;-72
2023/01/06 09:36:24;;;;;;;0.10;0.10;;;;;;;;;;5029512;28;20040;-72
2023/01/06 09:38:50;;;;;;;0.10;0.10;;;;;;;;;;5019580;28;20055;-73
2023/01/06 09:41:25;;;;;;;0.10;0.10;;;;;;;;;;5047723;28;20407;-73
2023/01/06 09:43:53;;;;;;;0.10;0.10;;;;;;;;;;5029237;28;20052;-74
2023/01/06 09:46:21;;;;;;;0.10;0.10;;;;;;;;;;5018280;28;20048;-73
2023/01/06 09:48:56;;;;;;;0.10;0.10;;;;;;;;;;5014727;28;20036;-73
2023/01/06 09:51:24;;;;;;;0.10;0.10;;;;;;;;;;5030725;28;20055;-73
2023/01/06 09:53:52;;;;;;;0.10;0.10;;;;;;;;;;5018913;28;20556;-73
2023/01/06 09:56:18;;;;;;;0.10;0.10;;;;;;;;;;5010083;28;20078;-74
2023/01/06 09:59:03;;;;;;;0.10;0.10;;;;;;;;;;5027261;28;20076;-72
2023/01/06 10:01:32;;;;;;;0.10;0.10;;;;;;;;;;5017493;28;20526;-73
2023/01/06 10:03:59;;;;;;;0.10;0.10;;;;;;;;;;5010843;28;20106;-72
2023/01/06 10:06:42;;;;;;;0.10;0.10;;;;;;;;;;5010862;28;20048;-72
2023/01/06 10:09:27;;;;;;;0.10;0.10;;;;;;;;;;5013153;28;20445;-76
2023/01/06 10:12:11;;;;;;;0.10;0.10;;;;;;;;;;5029616;28;20051;-69
2023/01/06 10:14:47;;;;;;;0.10;0.10;;;;;;;;;;5023451;28;20101;-71
2023/01/06 10:17:24;;;;;;;0.10;0.10;;;;;;;;;;5008213;28;20198;-76
2023/01/06 10:20:09;;;;;;;0.10;0.10;;;;;;;;;;5014439;28;20138;-76
2023/01/06 10:22:41;;;;;;;0.10;0.10;;;;;;;;;;5031734;28;20399;-71
2023/01/06 10:25:13;;;;;;;0.10;0.10;;;;;;;;;;5037872;28;20846;-75
2023/01/06 10:27:48;;;;;;;0.10;0.10;;;;;;;;;;5030444;28;20272;-72
2023/01/06 10:30:25;;;;;;;0.10;0.10;;;;;;;;;;4995880;28;20692;-73
2023/01/06 10:32:51;;;;;;;0.10;0.10;;;;;;;;;;4993847;28;20477;-72
2023/01/06 10:35:23;;;;;;;0.10;0.10;;;;;;;;;;5026337;28;20051;-72
2023/01/06 10:37:50;;;;;;;0.10;0.10;;;;;;;;;;5001700;28;20120;-71
2023/01/06 10:40:26;;;;;;;0.10;0.10;;;;;;;;;;5009738;28;20037;-71
2023/01/06 10:42:56;;;;;;;0.10;0.10;;;;;;;;;;5028051;28;20048;-72
2023/01/06 10:45:53;;;;;;;0.10;0.10;;;;;;;;;;5024013;28;20110;-75
2023/01/06 10:48:20;;;;;;;0.10;0.10;;;;;;;;;;4986025;28;20052;-76
2023/01/06 10:50:47;;;;;;;0.10;0.10;;;;;;;;;;5008084;28;20137;-75
2023/01/06 10:53:13;;;;;;;0.10;0.10;;;;;;;;;;5009196;28;20256;-76
2023/01/06 10:55:45;;;;;;;0.10;0.10;;;;;;;;;;5024937;28;20498;-76
2023/01/06 10:58:11;;;;;;;0.10;0.10;;;;;;;;;;5032723;28;20056;-77
2023/01/06 11:00:37;;;;;;;0.10;0.10;;;;;;;;;;5006700;28;20082;-77
2023/01/06 11:03:04;;;;;;;0.10;0.10;;;;;;;;;;5008612;28;20568;-77
2023/01/06 11:05:32;;;;;;;0.10;0.10;;;;;;;;;;5019845;28;20048;-79
2023/01/06 11:08:03;;;;;;;0.10;0.10;;;;;;;;;;5030754;28;20060;-77
2023/01/06 11:10:37;;;;;;;0.10;0.10;;;;;;;;;;5027839;28;20155;-77
2023/01/06 11:13:04;;;;;;;0.10;0.10;;;;;;;;;;5022724;28;20155;-78
2023/01/06 11:15:41;;;;;;;0.10;0.10;;;;;;;;;;4998943;28;20049;-78
2023/01/06 11:18:39;;;;;;;0.10;0.10;;;;;;;;;;5015858;28;20051;-79
2023/01/06 11:21:15;;;;;;;0.10;0.10;;;;;;;;;;4958666;28;20139;-77
2023/01/06 11:23:42;;;;;;;0.10;0.10;;;;;;;;;;5018066;28;20443;-77
2023/01/06 11:26:11;;;;;;;0.10;0.10;;;;;;;;;;5009642;28;20476;-78
2023/01/06 11:28:41;;;;;;;0.17;0.17;;;;;;;;;;5022914;28;20052;-78
2023/01/06 11:31:09;;;;;;;0.10;0.10;;;;;;;;;;5018743;28;20055;-77
2023/01/06 11:33:37;;;;;;;0.10;0.10;;;;;;;;;;5016140;28;20060;-77
2023/01/06 11:36:10;;;;;;;0.10;0.10;;;;;;;;;;4999998;28;20049;-77
2023/01/06 11:38:43;;;;;;;0.10;0.10;;;;;;;;;;5019133;28;20050;-78
2023/01/06 11:41:10;;;;;;;0.10;0.10;;;;;;;;;;5018957;28;20052;-78
2023/01/06 11:43:38;;;;;;;0.10;0.10;;;;;;;;;;4997774;28;20880;-77
2023/01/06 11:46:06;;;;;;;0.10;0.10;;;;;;;;;;4996404;28;20060;-77
2023/01/06 11:48:49;;;;;;;0.10;0.10;;;;;;;;;;5011884;28;20072;-78
2023/01/06 11:51:30;;;;;;;0.10;0.10;;;;;;;;;;5008687;28;20405;-77
2023/01/06 11:53:56;;;;;;;0.10;0.10;;;;;;;;;;5005567;28;20053;-78
2023/01/06 11:56:23;;;;;;;0.10;0.10;;;;;;;;;;5003713;28;20049;-78
2023/01/06 11:58:55;;;;;;;0.10;0.10;;;;;;;;;;5012298;28;20041;-78
2023/01/06 12:01:40;;;;;;;0.10;0.10;;;;;;;;;;4997660;28;20064;-78
2023/01/06 12:04:20;;;;;;;0.10;0.10;;;;;;;;;;4993554;28;20485;-78
2023/01/06 12:06:48;;;;;;;0.10;0.10;;;;;;;;;;4992811;28;20052;-77
2023/01/06 12:09:22;;;;;;;0.10;0.10;;;;;;;;;;5024069;28;20127;-74
2023/01/06 12:11:52;;;;;;;0.10;0.10;;;;;;;;;;5017965;28;20155;-74
2023/01/06 12:14:19;;;;;;;0.10;0.10;;;;;;;;;;5009911;28;20495;-74
2023/01/06 12:17:09;;;;;;;0.10;0.10;;;;;;;;;;5004441;28;20380;-70
2023/01/06 12:19:38;;;;;;;0.10;0.10;;;;;;;;;;4963820;28;20099;-77
2023/01/06 12:22:04;;;;;;;0.10;0.10;;;;;;;;;;5007854;28;20056;-78
2023/01/06 12:24:32;;;;;;;0.10;0.10;;;;;;;;;;5004764;28;20437;-75
2023/01/06 12:27:00;;;;;;;0.10;0.10;;;;;;;;;;5014192;28;20056;-78
2023/01/06 12:29:27;;;;;;;0.10;0.10;;;;;;;;;;5027999;28;20052;-79
2023/01/06 12:32:07;;;;;;;0.10;0.10;;;;;;;;;;5039674;28;20788;-75
2023/01/06 12:34:41;;;;;;;0.10;0.10;;;;;;;;;;4998664;28;20056;-76
2023/01/06 12:37:26;;;;;;;0.10;0.10;;;;;;;;;;5018653;28;20061;-78
2023/01/06 12:40:11;;;;;;;0.10;0.10;;;;;;;;;;5011446;28;20135;-76
2023/01/06 12:42:51;;;;;;;0.10;0.10;;;;;;;;;;5011793;28;20425;-77
2023/01/06 12:45:23;;;;;;;0.10;0.10;;;;;;;;;;5003150;28;20514;-75
2023/01/06 12:47:56;;;;;;;0.10;0.10;;;;;;;;;;5013430;28;20383;-76
2023/01/06 12:50:22;;;;;;;0.17;0.17;;;;;;;;;;5007677;28;20534;-75
2023/01/06 12:52:59;;;;;;;0.10;0.10;;;;;;;;;;5007897;28;20041;-76
2023/01/06 12:55:31;;;;;;;0.10;0.10;;;;;;;;;;5006856;28;20090;-76
2023/01/06 12:57:57;;;;;;;;;;;;;;;;;;5002845;28;20056;-73
2023/01/06 13:00:23;;;;;;;0.10;0.10;;;;;;;;;;5010535;28;19971;-73
2023/01/06 13:02:52;;;;;;;0.10;0.10;;;;;;;;;;5026834;28;20240;-73
2023/01/06 13:05:25;;;;;;;0.10;0.10;;;;;;;;;;5016324;28;20083;-72
2023/01/06 13:08:17;;;;;;;0.10;0.10;;;;;;;;;;5021846;28;20044;-74
2023/01/06 13:10:48;;;;;;;0.10;0.10;;;;;;;;;;4980337;28;20519;-74
2023/01/06 13:13:23;;;;;;;0.10;0.10;;;;;;;;;;5004556;28;20040;-73
2023/01/06 13:15:49;;;;;;;0.10;0.10;;;;;;;;;;5026629;28;20996;-73
2023/01/06 13:18:31;;;;;;;0.10;0.10;;;;;;;;;;5008535;28;20044;-73
2023/01/06 13:21:06;;;;;;;0.20;0.20;;;;;;;;;;5021108;28;20056;-73
2023/01/06 13:23:47;;;;;;;0.10;0.10;;;;;;;;;;4997241;28;20463;-74
2023/01/06 13:26:22;;;;;;;0.10;0.10;;;;;;;;;;5027120;28;20059;-74
2023/01/06 13:28:49;;;;;;;0.10;0.10;;;;;;;;;;4996709;28;20044;-72
2023/01/06 13:31:39;;;;;;;0.10;0.10;;;;;;;;;;5003982;28;20048;-75
2023/01/06 13:34:14;;;;;;;0.10;0.10;;;;;;;;;;5022012;28;20237;-74
2023/01/06 13:36:40;;;;;;;0.10;0.10;;;;;;;;;;4991225;28;20099;-73
2023/01/06 13:39:12;;;;;;;0.10;0.10;;;;;;;;;;5032732;28;20050;-73
2023/01/06 13:41:39;;;;;;;0.10;0.10;;;;;;;;;;5026767;28;20594;-73
2023/01/06 13:44:12;;;;;;;0.10;0.10;;;;;;;;;;5019074;28;20049;-73
2023/01/06 13:46:38;;;;;;;0.10;0.10;;;;;;;;;;5027085;28;20527;-73
2023/01/06 13:49:05;;;;;;;0.10;0.10;;;;;;;;;;5008975;28;20071;-72
2023/01/06 13:51:33;;;;;;;0.10;0.10;;;;;;;;;;5039783;28;20040;-73
2023/01/06 13:54:01;;;;;;;0.13;0.13;;;;;;;;;;5010459;28;20060;-72
2023/01/06 13:56:28;;;;;;;0.10;0.10;;;;;;;;;;4996100;28;20040;-72
2023/01/06 13:59:13;;;;;;;0.10;0.10;;;;;;;;;;5012158;28;20471;-75
2023/01/06 14:01:39;;;;;;;0.10;0.10;;;;;;;;;;5034018;28;20061;-73
2023/01/06 14:04:25;;;;;;;0.10;0.10;;;;;;;;;;5006260;28;20060;-75
2023/01/06 14:06:51;;;;;;;0.10;0.10;;;;;;;;;;4995361;28;20059;-72
2023/01/06 14:09:18;;;;;;;0.10;0.10;;;;;;;;;;5028400;28;20048;-74
2023/01/06 14:11:44;;;;;;;0.10;0.10;;;;;;;;;;5034494;28;20037;-72
2023/01/06 14:14:24;;;;;;;0.10;0.10;;;;;;;;;;5030555;28;20048;-72
2023/01/06 14:16:51;;;;;;;0.10;0.10;;;;;;;;;;5032993;28;20454;-72
2023/01/06 14:19:21;;;;;;;0.10;0.10;;;;;;;;;;5006566;28;20399;-75
2023/01/06 14:21:49;;;;;;;0.10;0.10;;;;;;;;;;5022511;28;20048;-73
2023/01/06 14:24:17;;;;;;;0.10;0.10;;;;;;;;;;5028741;28;20159;-72
2023/01/06 14:26:43;;;;;;;0.10;0.10;;;;;;;;;;5025573;28;20048;-74
2023/01/06 14:29:28;;;;;;;0.10;0.10;;;;;;;;;;5002690;28;20480;-74
2023/01/06 14:31:54;;;;;;;0.10;0.10;;;;;;;;;;5014559;28;20048;-74
2023/01/06 14:34:21;;;;;;;0.10;0.10;;;;;;;;;;5003052;28;20049;-75
2023/01/06 14:36:48;;;;;;;0.10;0.10;;;;;;;;;;5023548;28;20298;-72
2023/01/06 14:39:20;;;;;;;0.10;0.10;;;;;;;;;;5023628;28;20879;-71
2023/01/06 14:41:52;;;;;;;0.10;0.10;;;;;;;;;;5007733;28;20498;-73
2023/01/06 14:44:23;;;;;;;0.10;0.10;;;;;;;;;;5020782;28;20718;-71
2023/01/06 14:46:49;;;;;;;0.10;0.10;;;;;;;;;;5023954;28;20079;-71
2023/01/06 14:49:35;;;;;;;0.10;0.10;;;;;;;;;;5033076;28;20551;-71
2023/01/06 14:52:05;;;;;;;0.10;0.10;;;;;;;;;;5006879;28;20091;-72
2023/01/06 14:54:36;;;;;;;0.10;0.10;;;;;;;;;;5012105;28;20060;-71
2023/01/06 14:57:02;;;;;;;0.10;0.10;;;;;;;;;;5011417;28;20302;-72
2023/01/06 14:59:28;;;;;;;0.10;0.10;;;;;;;;;;5014754;28;20519;-72
2023/01/06 15:01:59;;;;;;;0.10;0.10;;;;;;;;;;5013248;28;20180;-72